createdAt,value
2022-11-18T00:01:09.647Z,157.37
2022-11-18T00:03:37.733Z,156.97
2022-11-18T00:06:06.156Z,156.87
2022-11-18T00:08:34.398Z,156.67
2022-11-18T00:11:06.813Z,156.97
2022-11-18T00:13:53.526Z,156.67
2022-11-18T00:16:21.315Z,157.13
2022-11-18T00:18:49.120Z,156.33
2022-11-18T00:21:17.088Z,155.77
2022-11-18T00:23:44.858Z,155.53
2022-11-18T00:26:14.472Z,155.87
2022-11-18T00:28:43.757Z,156.70
2022-11-18T00:31:13.690Z,156.10
2022-11-18T00:33:42.049Z,155.47
2022-11-18T00:36:12.194Z,156.03
2022-11-18T00:38:40.361Z,156.13
2022-11-18T00:41:10.645Z,156.07
2022-11-18T00:43:38.198Z,155.90
2022-11-18T00:46:09.474Z,155.97
2022-11-18T00:48:37.555Z,155.77
2022-11-18T00:51:10.122Z,156.50
2022-11-18T00:53:37.946Z,155.53
2022-11-18T00:56:06.277Z,155.83
2022-11-18T00:58:34.494Z,156.27
2022-11-18T01:01:02.586Z,156.43
2022-11-18T01:03:32.028Z,156.00
2022-11-18T01:05:59.841Z,156.13
2022-11-18T01:08:27.657Z,155.10
2022-11-18T01:11:15.429Z,155.97
2022-11-18T01:13:42.308Z,155.97
2022-11-18T01:16:10.106Z,155.63
2022-11-18T01:18:39.254Z,156.33
2022-11-18T01:21:07.279Z,156.53
2022-11-18T01:23:36.111Z,156.17
2022-11-18T01:26:07.004Z,155.30
2022-11-18T01:28:34.850Z,155.53
2022-11-18T01:31:05.720Z,155.30
2022-11-18T01:33:33.743Z,156.10
2022-11-18T01:36:03.122Z,156.80
2022-11-18T01:38:31.303Z,156.40
2022-11-18T01:40:59.194Z,156.97
2022-11-18T01:43:26.971Z,157.00
2022-11-18T01:45:54.967Z,155.83
2022-11-18T01:48:26.185Z,157.03
2022-11-18T01:50:58.217Z,156.20
2022-11-18T01:53:29.965Z,156.03
2022-11-18T01:56:01.128Z,156.33
2022-11-18T01:58:32.600Z,156.70
2022-11-18T02:01:01.256Z,156.10
2022-11-18T02:03:29.346Z,155.70
2022-11-18T02:05:57.356Z,155.67
2022-11-18T02:08:25.137Z,155.67
2022-11-18T02:10:54.286Z,155.90
2022-11-18T02:13:22.735Z,156.03
2022-11-18T02:15:58.231Z,155.70
2022-11-18T02:18:33.365Z,155.60
2022-11-18T02:21:12.806Z,155.97
2022-11-18T02:24:15.939Z,155.77
2022-11-18T02:27:14.166Z,155.43
2022-11-18T02:29:46.562Z,155.60
2022-11-18T02:32:19.378Z,155.57
2022-11-18T02:34:52.653Z,155.47
2022-11-18T02:37:25.895Z,155.50
2022-11-18T02:39:59.129Z,155.43
2022-11-18T02:42:28.417Z,155.27
2022-11-18T02:45:01.062Z,155.83
2022-11-18T02:47:32.335Z,154.63
2022-11-18T02:50:04.017Z,154.73
2022-11-18T02:52:34.337Z,155.87
2022-11-18T02:55:04.590Z,156.20
2022-11-18T02:57:34.538Z,155.57
2022-11-18T03:00:04.543Z,155.60
2022-11-18T03:02:42.379Z,155.00
2022-11-18T03:05:17.395Z,155.57
2022-11-18T03:07:47.666Z,155.40
2022-11-18T03:10:15.650Z,156.43
2022-11-18T03:12:47.550Z,156.03
2022-11-18T03:15:24.693Z,156.30
2022-11-18T03:18:01.509Z,156.00
2022-11-18T03:20:34.125Z,155.90
2022-11-18T03:23:07.141Z,156.60
2022-11-18T03:25:39.506Z,156.17
2022-11-18T03:28:15.602Z,155.67
2022-11-18T03:30:47.779Z,155.80
2022-11-18T03:33:22.527Z,155.93
2022-11-18T03:35:53.167Z,156.47
2022-11-18T03:38:29.878Z,156.37
2022-11-18T03:41:02.289Z,155.67
2022-11-18T03:43:36.170Z,155.67
2022-11-18T03:46:09.130Z,155.67
2022-11-18T03:48:41.713Z,155.87
2022-11-18T03:51:11.826Z,156.13
2022-11-18T03:53:43.945Z,156.57
2022-11-18T03:56:17.702Z,155.83
2022-11-18T03:58:52.551Z,155.93
2022-11-18T04:01:26.574Z,155.97
2022-11-18T04:03:54.570Z,156.03
2022-11-18T04:06:29.529Z,156.33
2022-11-18T04:09:01.369Z,156.13
2022-11-18T04:11:51.271Z,156.10
2022-11-18T04:14:20.404Z,155.67
2022-11-18T04:16:53.358Z,155.80
2022-11-18T04:19:21.427Z,156.73
2022-11-18T04:21:50.326Z,156.07
2022-11-18T04:24:18.199Z,156.50
2022-11-18T04:26:46.006Z,156.03
2022-11-18T04:29:13.785Z,156.23
2022-11-18T04:31:41.517Z,156.53
2022-11-18T04:34:10.659Z,156.63
2022-11-18T04:36:38.490Z,156.47
2022-11-18T04:39:06.545Z,156.53
2022-11-18T04:41:50.910Z,156.63
2022-11-18T04:44:18.723Z,156.00
2022-11-18T04:46:46.588Z,156.33
2022-11-18T04:49:16.903Z,156.37
2022-11-18T04:51:45.534Z,156.00
2022-11-18T04:54:14.077Z,156.87
2022-11-18T04:56:47.515Z,156.23
2022-11-18T04:59:19.988Z,156.07
2022-11-18T05:01:48.587Z,156.63
2022-11-18T05:04:19.873Z,156.50
2022-11-18T05:06:48.073Z,156.87
2022-11-18T05:09:16.242Z,156.07
2022-11-18T05:12:02.080Z,156.10
2022-11-18T05:14:31.446Z,156.03
2022-11-18T05:17:01.259Z,156.63
2022-11-18T05:19:30.704Z,156.87
2022-11-18T05:21:58.770Z,156.37
2022-11-18T05:24:26.715Z,157.13
2022-11-18T05:26:54.959Z,157.50
2022-11-18T05:29:23.674Z,156.57
2022-11-18T05:31:51.761Z,155.73
2022-11-18T05:34:20.358Z,155.53
2022-11-18T05:36:49.523Z,155.40
2022-11-18T05:39:17.840Z,154.70
2022-11-18T05:42:03.601Z,156.60
2022-11-18T05:44:31.408Z,155.47
2022-11-18T05:47:00.082Z,155.97
2022-11-18T05:49:27.869Z,155.77
2022-11-18T05:51:56.959Z,155.87
2022-11-18T05:54:24.849Z,155.10
2022-11-18T05:56:52.646Z,156.50
2022-11-18T05:59:20.771Z,155.93
2022-11-18T06:01:52.591Z,156.33
2022-11-18T06:04:24.354Z,156.20
2022-11-18T06:06:55.770Z,155.23
2022-11-18T06:09:29.455Z,155.47
2022-11-18T06:11:59.434Z,155.37
2022-11-18T06:14:31.060Z,155.97
2022-11-18T06:17:03.866Z,155.20
2022-11-18T06:19:32.931Z,156.13
2022-11-18T06:22:02.188Z,156.33
2022-11-18T06:24:31.577Z,156.97
2022-11-18T06:26:59.678Z,157.37
2022-11-18T06:29:28.422Z,156.93
2022-11-18T06:31:56.383Z,157.90
2022-11-18T06:34:24.479Z,156.33
2022-11-18T06:36:52.252Z,154.93
2022-11-18T06:39:20.418Z,155.63
2022-11-18T06:41:49.844Z,155.57
2022-11-18T06:44:16.788Z,155.60
2022-11-18T06:46:56.536Z,155.73
2022-11-18T06:49:25.780Z,155.23
2022-11-18T06:51:54.114Z,154.50
2022-11-18T06:54:22.130Z,155.40
2022-11-18T06:56:51.409Z,154.97
2022-11-18T06:59:23.479Z,155.53
2022-11-18T07:01:53.003Z,155.70
2022-11-18T07:04:21.119Z,155.07
2022-11-18T07:06:48.973Z,155.30
2022-11-18T07:09:17.354Z,155.00
2022-11-18T07:11:45.479Z,155.93
2022-11-18T07:14:15.145Z,155.10
2022-11-18T07:16:43.055Z,154.63
2022-11-18T07:19:13.250Z,154.20
2022-11-18T07:21:42.540Z,155.07
2022-11-18T07:24:13.139Z,155.27
2022-11-18T07:26:41.295Z,154.87
2022-11-18T07:29:09.641Z,155.40
2022-11-18T07:31:39.790Z,155.27
2022-11-18T07:34:07.852Z,155.20
2022-11-18T07:36:36.346Z,155.03
2022-11-18T07:39:05.641Z,155.10
2022-11-18T07:41:33.876Z,154.87
2022-11-18T07:44:03.401Z,155.30
2022-11-18T07:46:32.777Z,155.00
2022-11-18T07:49:03.318Z,154.93
2022-11-18T07:51:33.846Z,154.50
2022-11-18T07:54:01.783Z,154.70
2022-11-18T07:56:29.608Z,154.43
2022-11-18T07:58:57.587Z,153.97
2022-11-18T08:01:28.892Z,154.27
2022-11-18T08:03:57.352Z,155.37
2022-11-18T08:06:26.535Z,154.13
2022-11-18T08:08:57.349Z,154.00
2022-11-18T08:11:25.136Z,154.10
2022-11-18T08:13:53.178Z,154.53
2022-11-18T08:16:23.724Z,153.87
2022-11-18T08:18:51.861Z,154.47
2022-11-18T08:21:21.605Z,154.43
2022-11-18T08:23:52.565Z,154.60
2022-11-18T08:26:21.428Z,154.10
2022-11-18T08:28:50.034Z,154.60
2022-11-18T08:31:19.927Z,154.37
2022-11-18T08:33:48.106Z,154.40
2022-11-18T08:36:17.777Z,154.33
2022-11-18T08:38:45.962Z,154.07
2022-11-18T08:41:16.827Z,154.23
2022-11-18T08:43:44.977Z,154.27
2022-11-18T08:46:12.777Z,154.43
2022-11-18T08:48:40.581Z,153.77
2022-11-18T08:51:11.800Z,153.37
2022-11-18T08:53:39.643Z,154.93
2022-11-18T08:56:07.871Z,153.50
2022-11-18T08:58:37.019Z,153.90
2022-11-18T09:01:06.204Z,154.53
2022-11-18T09:03:34.094Z,154.23
2022-11-18T09:06:07.343Z,153.70
2022-11-18T09:08:35.108Z,154.37
2022-11-18T09:11:07.242Z,154.50
2022-11-18T09:16:27.888Z,154.30
2022-11-18T09:18:56.515Z,154.57
2022-11-18T09:21:25.213Z,154.47
2022-11-18T09:23:53.364Z,153.80
2022-11-18T09:26:23.674Z,154.53
2022-11-18T09:28:53.897Z,154.27
2022-11-18T09:31:22.098Z,153.80
2022-11-18T09:33:51.265Z,153.50
2022-11-18T09:36:20.850Z,155.27
2022-11-18T09:38:53.212Z,154.37
2022-11-18T09:41:47.228Z,154.10
2022-11-18T09:44:32.773Z,153.47
2022-11-18T09:47:10.846Z,153.80
2022-11-18T09:49:42.007Z,154.37
2022-11-18T09:52:17.112Z,154.27
2022-11-18T09:54:45.054Z,153.53
2022-11-18T09:57:16.159Z,153.93
2022-11-18T09:59:44.887Z,153.67
2022-11-18T10:02:35.928Z,153.33
2022-11-18T10:05:16.377Z,154.17
2022-11-18T10:07:53.094Z,154.67
2022-11-18T10:10:25.553Z,154.67
2022-11-18T10:13:02.274Z,154.63
2022-11-18T10:15:37.150Z,154.30
2022-11-18T10:18:45.134Z,154.87
2022-11-18T10:21:19.939Z,154.30
2022-11-18T10:23:54.607Z,154.73
2022-11-18T10:26:36.355Z,154.77
2022-11-18T10:29:07.442Z,154.67
2022-11-18T10:31:37.585Z,154.43
2022-11-18T10:34:05.501Z,154.97
2022-11-18T10:36:36.892Z,154.70
2022-11-18T10:39:11.331Z,154.90
2022-11-18T10:41:42.552Z,154.47
2022-11-18T10:44:36.229Z,154.43
2022-11-18T10:47:22.885Z,154.33
2022-11-18T10:49:51.301Z,154.57
2022-11-18T10:52:21.027Z,154.70
2022-11-18T10:55:10.808Z,155.47
2022-11-18T10:57:43.343Z,154.83
2022-11-18T11:00:38.470Z,155.43
2022-11-18T11:03:28.070Z,155.30
2022-11-18T11:06:28.485Z,154.57
2022-11-18T11:09:00.244Z,154.47
2022-11-18T11:11:30.307Z,154.63
2022-11-18T11:14:18.232Z,155.37
2022-11-18T11:16:52.823Z,155.37
2022-11-18T11:19:24.022Z,154.97
2022-11-18T11:21:52.389Z,155.33
2022-11-18T11:24:25.733Z,155.53
2022-11-18T11:30:09.976Z,155.00
2022-11-18T11:32:57.819Z,155.03
2022-11-18T11:35:29.455Z,155.63
2022-11-18T11:38:00.703Z,155.37
2022-11-18T11:40:35.961Z,156.43
2022-11-18T11:43:33.806Z,156.03
2022-11-18T11:46:26.577Z,157.87
2022-11-18T11:49:03.009Z,155.90
2022-11-18T11:51:39.400Z,155.40
2022-11-18T11:54:25.217Z,154.87
2022-11-18T11:56:58.883Z,155.07
2022-11-18T11:59:37.986Z,154.43
2022-11-18T12:02:25.883Z,155.33
2022-11-18T12:04:56.448Z,154.43
2022-11-18T12:07:27.701Z,155.03
2022-11-18T12:10:09.763Z,155.43
2022-11-18T12:12:53.682Z,155.83
2022-11-18T12:15:34.079Z,155.20
2022-11-18T12:18:11.929Z,154.13
2022-11-18T12:20:46.073Z,154.17
2022-11-18T12:23:20.250Z,153.43
2022-11-18T12:26:03.670Z,153.83
2022-11-18T12:28:36.482Z,153.50
2022-11-18T12:31:33.439Z,153.33
2022-11-18T12:34:04.228Z,153.13
2022-11-18T12:36:33.940Z,152.90
2022-11-18T12:39:57.746Z,152.93
2022-11-18T12:43:01.470Z,152.67
2022-11-18T12:45:57.597Z,152.13
2022-11-18T12:48:47.643Z,152.03
2022-11-18T12:51:46.231Z,152.57
2022-11-18T12:54:26.238Z,153.33
2022-11-18T12:56:54.929Z,151.40
2022-11-18T12:59:35.230Z,152.43
2022-11-18T13:02:21.729Z,152.77
2022-11-18T13:05:10.054Z,153.03
2022-11-18T13:08:04.252Z,152.30
2022-11-18T13:10:35.038Z,151.77
2022-11-18T13:13:03.664Z,152.57
2022-11-18T13:15:49.153Z,152.03
2022-11-18T13:18:20.034Z,152.50
2022-11-18T13:20:57.447Z,152.37
2022-11-18T13:23:46.493Z,152.00
2022-11-18T13:26:19.674Z,152.80
2022-11-18T13:29:02.621Z,153.03
2022-11-18T13:31:36.389Z,152.07
2022-11-18T13:34:13.619Z,152.50
2022-11-18T13:36:45.638Z,151.87
2022-11-18T13:39:21.266Z,151.60
2022-11-18T13:42:00.701Z,151.70
2022-11-18T13:44:30.213Z,151.40
2022-11-18T13:47:05.948Z,151.90
2022-11-18T13:49:51.224Z,151.00
2022-11-18T13:52:24.765Z,151.40
2022-11-18T13:54:54.522Z,151.47
2022-11-18T13:57:25.279Z,151.67
2022-11-18T13:59:54.920Z,151.37
2022-11-18T14:02:23.490Z,151.47
2022-11-18T14:04:56.285Z,151.07
2022-11-18T14:07:32.669Z,152.07
2022-11-18T14:10:03.268Z,150.37
2022-11-18T14:12:32.893Z,151.50
2022-11-18T14:15:23.279Z,150.63
2022-11-18T14:17:56.611Z,150.63
2022-11-18T14:20:27.060Z,150.40
2022-11-18T14:22:57.415Z,150.73
2022-11-18T14:25:29.067Z,150.93
2022-11-18T14:27:58.025Z,150.80
2022-11-18T14:30:35.445Z,150.30
2022-11-18T14:33:11.837Z,150.20
2022-11-18T14:35:41.516Z,150.03
2022-11-18T14:38:36.597Z,150.73
2022-11-18T14:41:05.308Z,150.03
2022-11-18T14:43:33.277Z,150.90
2022-11-18T14:46:02.995Z,150.40
2022-11-18T14:51:22.115Z,150.67
2022-11-18T14:53:49.919Z,151.37
2022-11-18T14:56:24.814Z,151.67
2022-11-18T14:58:52.614Z,151.43
2022-11-18T15:00:27.221Z,150.33
2022-11-18T15:01:22.085Z,150.70
2022-11-18T15:03:52.865Z,152.27
2022-11-18T15:06:24.616Z,152.63
2022-11-18T15:08:54.374Z,152.90
2022-11-18T15:11:22.161Z,150.63
2022-11-18T15:13:50.628Z,151.63
2022-11-18T15:16:20.815Z,149.57
2022-11-18T15:18:50.515Z,149.87
2022-11-18T15:21:18.927Z,149.33
2022-11-18T15:23:48.235Z,149.40
2022-11-18T15:26:21.919Z,149.63
2022-11-18T15:28:51.309Z,149.80
2022-11-18T15:31:19.794Z,149.30
2022-11-18T15:33:48.450Z,149.20
2022-11-18T15:36:18.315Z,149.87
2022-11-18T15:38:48.036Z,149.63
2022-11-18T15:41:18.997Z,151.07
2022-11-18T15:43:47.398Z,151.17
2022-11-18T15:46:15.775Z,151.73
2022-11-18T15:48:44.086Z,151.23
2022-11-18T15:51:12.636Z,150.90
2022-11-18T15:53:40.676Z,151.43
2022-11-18T15:56:27.685Z,151.23
2022-11-18T15:58:57.202Z,151.80
2022-11-18T16:01:26.748Z,151.43
2022-11-18T16:03:55.191Z,151.73
2022-11-18T16:06:23.261Z,151.87
2022-11-18T16:08:57.608Z,151.80
2022-11-18T16:11:47.206Z,152.20
2022-11-18T16:14:17.415Z,152.60
2022-11-18T16:16:47.169Z,152.33
2022-11-18T16:19:16.790Z,152.17
2022-11-18T16:21:47.502Z,152.57
2022-11-18T16:24:18.773Z,153.13
2022-11-18T16:26:48.479Z,153.80
2022-11-18T16:29:17.485Z,152.70
2022-11-18T16:31:50.547Z,152.40
2022-11-18T16:34:20.182Z,153.13
2022-11-18T16:36:49.330Z,152.70
2022-11-18T16:39:18.957Z,152.37
2022-11-18T16:41:48.282Z,152.20
2022-11-18T16:44:17.591Z,150.63
2022-11-18T16:46:48.288Z,151.67
2022-11-18T16:49:18.432Z,151.37
2022-11-18T16:51:48.977Z,151.27
2022-11-18T16:54:18.921Z,151.60
2022-11-18T16:56:48.819Z,151.73
2022-11-18T16:59:19.123Z,151.23
2022-11-18T17:01:47.187Z,151.70
2022-11-18T17:04:15.549Z,151.63
2022-11-18T17:06:43.942Z,150.90
2022-11-18T17:09:15.162Z,151.13
2022-11-18T17:11:43.130Z,151.27
2022-11-18T17:14:12.578Z,150.90
2022-11-18T17:16:40.398Z,151.10
2022-11-18T17:19:11.873Z,151.57
2022-11-18T17:21:40.168Z,151.07
2022-11-18T17:24:09.008Z,152.57
2022-11-18T17:26:36.776Z,151.67
2022-11-18T17:29:04.607Z,151.90
2022-11-18T17:31:34.898Z,151.40
2022-11-18T17:34:02.705Z,151.83
2022-11-18T17:36:30.704Z,152.03
2022-11-18T17:39:00.578Z,153.00
2022-11-18T17:41:52.600Z,152.87
2022-11-18T17:44:20.718Z,152.50
2022-11-18T17:46:50.111Z,152.33
2022-11-18T17:49:19.319Z,151.43
2022-11-18T17:51:47.463Z,151.47
2022-11-18T17:54:16.589Z,150.37
2022-11-18T17:56:44.571Z,151.03
2022-11-18T17:59:14.450Z,150.37
2022-11-18T18:01:42.364Z,149.97
2022-11-18T18:04:12.210Z,150.73
2022-11-18T18:06:40.051Z,150.00
2022-11-18T18:09:07.818Z,149.63
2022-11-18T18:11:35.649Z,150.17
2022-11-18T18:14:14.650Z,149.93
2022-11-18T18:16:44.490Z,149.73
2022-11-18T18:19:16.290Z,149.60
2022-11-18T18:21:44.148Z,150.33
2022-11-18T18:24:12.918Z,150.20
2022-11-18T18:26:40.731Z,150.37
2022-11-18T18:29:08.495Z,150.10
2022-11-18T18:31:37.238Z,150.07
2022-11-18T18:34:05.321Z,149.27
2022-11-18T18:36:34.559Z,149.23
2022-11-18T18:39:02.528Z,150.10
2022-11-18T18:41:30.774Z,149.10
2022-11-18T18:43:58.605Z,149.63
2022-11-18T18:46:31.625Z,149.63
2022-11-18T18:49:01.955Z,148.67
2022-11-18T18:51:31.653Z,150.17
2022-11-18T18:54:01.010Z,149.03
2022-11-18T18:56:29.235Z,149.47
2022-11-18T18:58:57.995Z,149.60
2022-11-18T19:01:27.449Z,149.90
2022-11-18T19:03:56.667Z,148.97
2022-11-18T19:06:52.016Z,149.57
2022-11-18T19:09:45.445Z,149.57
2022-11-18T19:12:31.246Z,149.37
2022-11-18T19:14:59.142Z,149.93
2022-11-18T19:17:27.049Z,149.33
2022-11-18T19:20:12.782Z,149.53
2022-11-18T19:22:40.561Z,149.67
2022-11-18T19:25:10.676Z,150.13
2022-11-18T19:27:39.994Z,148.73
2022-11-18T19:30:09.949Z,149.40
2022-11-18T19:32:38.479Z,150.07
2022-11-18T19:35:07.642Z,149.07
2022-11-18T19:37:35.986Z,149.50
2022-11-18T19:40:07.236Z,149.47
2022-11-18T19:42:40.628Z,149.30
2022-11-18T19:45:09.093Z,148.93
2022-11-18T19:47:36.954Z,148.93
2022-11-18T19:50:05.565Z,149.50
2022-11-18T19:52:33.546Z,149.77
2022-11-18T19:55:01.305Z,149.43
2022-11-18T19:57:29.140Z,149.37
2022-11-18T19:59:58.259Z,149.13
2022-11-18T20:02:28.342Z,148.90
2022-11-18T20:05:13.750Z,149.03
2022-11-18T20:07:41.804Z,149.30
2022-11-18T20:10:11.346Z,148.47
2022-11-18T20:12:39.138Z,149.03
2022-11-18T20:15:10.163Z,149.17
2022-11-18T20:17:37.921Z,148.93
2022-11-18T20:20:06.515Z,148.37
2022-11-18T20:22:34.397Z,148.63
2022-11-18T20:25:02.237Z,149.07
2022-11-18T20:27:30.024Z,148.73
2022-11-18T20:29:57.759Z,149.37
2022-11-18T20:32:26.891Z,148.67
2022-11-18T20:34:54.676Z,148.43
2022-11-18T20:37:27.785Z,149.57
2022-11-18T20:39:55.948Z,148.57
2022-11-18T20:42:41.534Z,148.57
2022-11-18T20:45:10.413Z,149.07
2022-11-18T20:47:39.538Z,148.87
2022-11-18T20:50:08.065Z,148.70
2022-11-18T20:52:35.991Z,149.37
2022-11-18T20:55:05.952Z,148.87
2022-11-18T20:57:34.121Z,148.73
2022-11-18T21:00:01.928Z,149.47
2022-11-18T21:02:32.786Z,149.17
2022-11-18T21:05:02.062Z,149.63
2022-11-18T21:07:30.027Z,150.03
2022-11-18T21:09:58.258Z,150.93
2022-11-18T21:12:26.048Z,150.30
2022-11-18T21:14:52.889Z,148.93
2022-11-18T21:17:20.676Z,150.37
2022-11-18T21:19:48.729Z,150.53
2022-11-18T21:22:16.953Z,150.93
2022-11-18T21:24:45.139Z,150.53
2022-11-18T21:27:12.925Z,151.23
2022-11-18T21:29:42.716Z,150.97
2022-11-18T21:32:10.507Z,150.40
2022-11-18T21:34:38.262Z,151.03
2022-11-18T21:37:06.313Z,150.97
2022-11-18T21:39:35.457Z,150.43
2022-11-18T21:42:03.625Z,148.70
2022-11-18T21:44:31.400Z,148.60
2022-11-18T21:46:59.142Z,148.93
2022-11-18T21:49:26.955Z,149.07
2022-11-18T21:51:54.758Z,148.90
2022-11-18T21:54:22.590Z,148.93
2022-11-18T21:56:53.525Z,149.10
2022-11-18T21:59:22.334Z,148.67
2022-11-18T22:01:50.294Z,148.37
2022-11-18T22:04:32.015Z,148.50
2022-11-18T22:07:00.016Z,149.50
2022-11-18T22:09:32.827Z,149.17
2022-11-18T22:12:06.375Z,148.67
2022-11-18T22:14:34.351Z,149.27
2022-11-18T22:17:02.134Z,150.17
2022-11-18T22:19:29.980Z,149.97
2022-11-18T22:21:57.789Z,151.13
2022-11-18T22:24:25.606Z,150.20
2022-11-18T22:26:53.479Z,151.30
2022-11-18T22:29:24.170Z,150.23
2022-11-18T22:31:52.121Z,150.30
2022-11-18T22:34:19.975Z,150.03
2022-11-18T22:36:47.814Z,149.77
2022-11-18T22:39:15.589Z,149.77
2022-11-18T22:42:00.714Z,150.17
2022-11-18T22:44:29.871Z,149.30
2022-11-18T22:46:57.646Z,150.33
2022-11-18T22:49:25.382Z,150.07
2022-11-18T22:51:53.146Z,149.67
2022-11-18T22:57:08.780Z,149.57
2022-11-18T22:59:38.157Z,149.80
2022-11-18T23:02:06.439Z,148.90
2022-11-18T23:04:34.328Z,149.57
2022-11-18T23:07:02.383Z,149.83
2022-11-18T23:09:30.216Z,149.40
2022-11-18T23:12:15.643Z,148.80
2022-11-18T23:14:44.825Z,148.60
2022-11-18T23:17:12.612Z,148.13
2022-11-18T23:19:43.410Z,147.93
2022-11-18T23:22:11.362Z,148.33
2022-11-18T23:24:39.252Z,148.03
2022-11-18T23:27:07.046Z,148.17
2022-11-18T23:29:34.799Z,147.20
2022-11-18T23:32:04.486Z,147.63
2022-11-18T23:34:32.283Z,147.77
2022-11-18T23:37:00.045Z,148.30
2022-11-18T23:39:27.811Z,147.53
2022-11-18T23:41:55.625Z,147.47
2022-11-18T23:44:43.418Z,147.67
2022-11-18T23:47:12.755Z,147.00
2022-11-18T23:49:40.509Z,147.70
2022-11-18T23:52:08.390Z,147.87
2022-11-18T23:54:36.198Z,147.53
2022-11-18T23:57:05.421Z,147.50
2022-11-18T23:59:33.750Z,147.73
